Time;durP1;ratioP1;P1;durP2;ratioP2;P2;SDS_P1;SDS_P2;PMS_P1;PMS_P2;Temp;Humidity;BMP_temperature;BMP_pressure;BME280_temperature;BME280_humidity;BME280_pressure;Samples;Min_cycle;Max_cycle;Signal;HPM_P1;HPM_P2
2023/01/17 00:00:06;;;;;;;0.95;0.60;;;1.60;99.90;;;;;;5130315;27;20212;-69
2023/01/17 00:02:33;;;;;;;0.50;0.40;;;1.50;99.90;;;;;;5130362;27;20691;-69
2023/01/17 00:10:31;;;;;;;0.30;0.30;;;1.20;99.90;;;;;;5130098;27;20244;-70
2023/01/17 00:13:00;;;;;;;0.30;0.30;;;1.20;99.90;;;;;;5125443;27;20198;-69
2023/01/17 00:15:29;;;;;;;0.50;0.50;;;1.10;99.90;;;;;;5129979;27;20217;-68
2023/01/17 00:17:56;;;;;;;0.30;0.30;;;1.20;99.90;;;;;;5115778;27;20213;-69
2023/01/17 00:26:03;;;;;;;0.30;0.30;;;1.20;99.90;;;;;;5109907;27;20233;-69
2023/01/17 01:35:27;;;;;;;0.52;0.32;;;1.30;99.90;;;;;;5108554;27;20213;-69
2023/01/17 01:37:54;;;;;;;0.30;0.30;;;1.40;99.90;;;;;;5122037;27;20209;-70
2023/01/17 01:40:22;;;;;;;0.30;0.30;;;1.30;99.90;;;;;;5128196;27;20225;-70
2023/01/17 01:42:51;;;;;;;0.30;0.30;;;1.40;99.90;;;;;;5114304;27;20217;-69
2023/01/17 01:45:20;;;;;;;0.45;0.45;;;1.30;99.90;;;;;;5108232;28;20194;-70
2023/01/17 01:47:50;;;;;;;0.30;0.30;;;1.30;99.90;;;;;;5126589;27;20644;-70
2023/01/17 01:50:18;;;;;;;0.40;0.40;;;1.40;99.90;;;;;;5123587;27;20198;-69
2023/01/17 01:52:48;;;;;;;0.30;0.30;;;1.40;99.90;;;;;;5117761;27;20634;-69
2023/01/17 01:55:18;;;;;;;0.30;0.20;;;1.40;99.90;;;;;;5128723;27;20193;-70
2023/01/17 01:57:49;;;;;;;25.83;1.67;;;1.40;99.90;;;;;;5115925;27;20209;-69
2023/01/17 02:00:23;;;;;;;0.40;0.40;;;1.50;99.90;;;;;;5107066;28;20668;-69
2023/01/17 02:02:51;;;;;;;0.30;0.30;;;1.50;99.90;;;;;;5117639;27;20590;-67
2023/01/17 02:05:21;;;;;;;0.30;0.30;;;1.50;99.90;;;;;;5127039;27;20197;-69
2023/01/17 02:07:52;;;;;;;0.30;0.30;;;1.50;99.90;;;;;;5128795;27;20203;-68
2023/01/17 02:10:19;;;;;;;0.95;0.65;;;1.50;99.90;;;;;;5127489;27;20573;-69
2023/01/17 02:12:47;;;;;;;0.85;0.40;;;1.50;99.90;;;;;;5120126;27;20590;-67
2023/01/17 02:15:14;;;;;;;0.45;0.45;;;1.50;99.90;;;;;;5107903;28;20205;-69
2023/01/17 02:17:54;;;;;;;0.30;0.30;;;1.50;99.90;;;;;;5110251;27;20289;-69
2023/01/17 02:20:55;;;;;;;0.30;0.30;;;1.50;99.90;;;;;;5127023;27;20637;-70
2023/01/17 02:24:14;;;;;;;0.30;0.30;;;1.50;99.90;;;;;;5114932;27;20225;-70
2023/01/17 02:26:50;;;;;;;0.30;0.30;;;1.50;99.90;;;;;;5092547;27;20595;-71
2023/01/17 02:29:57;;;;;;;0.65;0.40;;;1.60;99.90;;;;;;5106891;28;20213;-69
2023/01/17 02:32:34;;;;;;;0.40;0.40;;;1.60;99.90;;;;;;5107933;28;20726;-70
2023/01/17 02:35:06;;;;;;;0.55;0.32;;;1.70;99.90;;;;;;5108186;28;20198;-70
2023/01/17 02:37:44;;;;;;;3.97;0.93;;;1.70;99.90;;;;;;5115478;28;20212;-69
2023/01/17 02:40:16;;;;;;;0.60;0.40;;;1.70;99.90;;;;;;5123063;28;20224;-70
2023/01/17 02:42:50;;;;;;;0.30;0.30;;;1.80;99.90;;;;;;5127909;28;20197;-70
2023/01/17 02:45:19;;;;;;;0.30;0.30;;;1.80;99.90;;;;;;5127687;28;20655;-70
2023/01/17 02:47:47;;;;;;;0.30;0.30;;;1.80;99.90;;;;;;5128187;28;20186;-69
2023/01/17 02:50:19;;;;;;;0.30;0.20;;;1.70;99.90;;;;;;5126464;28;20282;-70
2023/01/17 02:53:00;;;;;;;0.30;0.30;;;1.70;99.90;;;;;;5127932;28;20197;-69
2023/01/17 02:55:40;;;;;;;0.60;0.43;;;1.80;99.90;;;;;;5111822;28;20224;-69
2023/01/17 02:58:23;;;;;;;0.40;0.38;;;1.80;99.90;;;;;;5127716;28;20266;-69
2023/01/17 03:01:00;;;;;;;0.30;0.30;;;1.80;99.90;;;;;;5128001;28;20327;-69
2023/01/17 03:03:32;;;;;;;0.30;0.30;;;1.80;99.90;;;;;;5127918;28;20672;-68
2023/01/17 03:06:10;;;;;;;0.40;0.30;;;1.90;99.90;;;;;;5127329;28;20269;-69
2023/01/17 03:08:38;;;;;;;0.43;0.43;;;1.90;99.90;;;;;;5127184;28;20609;-68
2023/01/17 03:11:07;;;;;;;0.40;0.30;;;1.90;99.90;;;;;;5127221;28;20232;-69
2023/01/17 03:13:34;;;;;;;0.30;0.30;;;1.80;99.90;;;;;;5128006;28;20193;-69
2023/01/17 03:16:05;;;;;;;0.30;0.30;;;2.00;99.90;;;;;;5127483;28;20312;-70
2023/01/17 03:18:34;;;;;;;0.30;0.20;;;1.80;99.90;;;;;;5119437;28;20300;-69
2023/01/17 03:21:01;;;;;;;0.60;0.40;;;1.80;99.90;;;;;;5127824;27;20232;-69
2023/01/17 03:23:29;;;;;;;0.77;0.75;;;1.80;99.90;;;;;;5131073;27;20683;-67
2023/01/17 03:25:57;;;;;;;0.30;0.20;;;1.80;99.90;;;;;;5131255;27;20683;-69
2023/01/17 03:28:25;;;;;;;0.30;0.30;;;1.70;99.90;;;;;;5130662;27;20232;-69
2023/01/17 03:30:52;;;;;;;0.43;0.40;;;1.70;99.90;;;;;;5123325;27;20695;-69
2023/01/17 03:33:19;;;;;;;0.30;0.20;;;1.70;99.90;;;;;;5131438;27;20667;-70
2023/01/17 03:35:48;;;;;;;0.30;0.30;;;1.80;99.90;;;;;;5130995;27;20205;-69
2023/01/17 03:38:16;;;;;;;0.55;0.55;;;1.80;99.90;;;;;;5128114;27;20612;-70
2023/01/17 03:40:43;;;;;;;1.05;0.80;;;1.90;99.90;;;;;;5128661;27;20221;-71
2023/01/17 03:43:11;;;;;;;0.30;0.30;;;1.80;99.90;;;;;;5130834;27;20229;-68
2023/01/17 03:45:39;;;;;;;0.65;0.60;;;1.80;99.90;;;;;;5130964;27;20248;-69
2023/01/17 03:48:07;;;;;;;0.30;0.28;;;1.80;99.90;;;;;;5110522;28;20702;-67
2023/01/17 03:50:35;;;;;;;0.30;0.20;;;1.70;99.90;;;;;;5117038;27;20649;-69
2023/01/17 03:53:04;;;;;;;0.30;0.30;;;1.70;99.90;;;;;;5130909;27;20254;-69
2023/01/17 03:55:32;;;;;;;0.30;0.30;;;1.70;99.90;;;;;;5131084;27;20325;-69
2023/01/17 03:57:59;;;;;;;0.30;0.30;;;1.60;99.90;;;;;;5130164;27;20193;-68
2023/01/17 04:00:26;;;;;;;0.57;0.57;;;1.50;99.90;;;;;;5130366;27;20209;-70
2023/01/17 04:02:54;;;;;;;3.80;1.02;;;1.50;99.90;;;;;;5130736;27;20276;-69
2023/01/17 04:05:21;;;;;;;0.80;0.80;;;1.40;99.90;;;;;;5131146;27;20619;-71
2023/01/17 04:07:48;;;;;;;1.58;0.60;;;1.30;99.90;;;;;;5130518;27;20204;-69
2023/01/17 04:10:16;;;;;;;0.30;0.30;;;1.20;99.90;;;;;;5130082;27;20189;-69
2023/01/17 04:12:43;;;;;;;0.60;0.55;;;1.20;99.90;;;;;;5130358;27;20546;-69
2023/01/17 04:15:11;;;;;;;0.40;0.40;;;1.20;99.90;;;;;;5130190;27;20193;-69
2023/01/17 04:17:38;;;;;;;0.32;0.30;;;1.30;99.90;;;;;;5130273;27;20193;-69
2023/01/17 04:20:05;;;;;;;0.40;0.40;;;1.30;99.90;;;;;;5129799;27;20201;-70
2023/01/17 04:22:32;;;;;;;0.60;0.52;;;1.30;99.90;;;;;;5111597;27;20287;-69
2023/01/17 04:24:59;;;;;;;0.30;0.30;;;1.30;99.90;;;;;;5130194;27;20225;-69
2023/01/17 04:27:27;;;;;;;0.63;0.63;;;1.30;99.90;;;;;;5129942;27;20262;-68
2023/01/17 04:29:54;;;;;;;1.00;0.50;;;1.30;99.90;;;;;;5129157;27;20284;-68
2023/01/17 04:32:21;;;;;;;0.40;0.40;;;1.30;99.90;;;;;;5129118;27;20248;-69
2023/01/17 04:34:48;;;;;;;0.30;0.30;;;1.40;99.90;;;;;;5130115;27;20718;-69
2023/01/17 04:37:14;;;;;;;0.30;0.30;;;1.40;99.90;;;;;;5127547;27;20230;-70
2023/01/17 04:39:41;;;;;;;0.50;0.50;;;1.10;99.90;;;;;;5117800;27;20694;-69
2023/01/17 04:42:08;;;;;;;0.30;0.30;;;1.40;99.90;;;;;;5116277;27;20229;-68
2023/01/17 04:44:36;;;;;;;0.43;0.32;;;1.50;99.90;;;;;;5109572;28;20228;-71
2023/01/17 04:47:03;;;;;;;0.30;0.25;;;1.50;99.90;;;;;;5110759;27;20233;-69
2023/01/17 04:49:30;;;;;;;0.52;0.52;;;1.60;99.90;;;;;;5129378;27;20691;-69
2023/01/17 04:51:56;;;;;;;0.40;0.30;;;1.60;99.90;;;;;;5129362;27;20837;-69
2023/01/17 04:54:23;;;;;;;1.05;0.63;;;1.60;99.90;;;;;;5130180;27;20575;-69
2023/01/17 04:56:50;;;;;;;0.75;0.73;;;1.60;99.90;;;;;;5123755;27;20599;-68
2023/01/17 04:59:17;;;;;;;0.35;0.35;;;1.60;99.90;;;;;;5108463;28;20293;-69
2023/01/17 05:01:47;;;;;;;0.40;0.40;;;1.50;99.90;;;;;;5110517;27;20222;-67
2023/01/17 05:04:14;;;;;;;3.00;0.60;;;1.40;99.90;;;;;;5114071;27;20582;-70
2023/01/17 05:06:41;;;;;;;0.95;0.73;;;1.50;99.90;;;;;;5128856;27;20221;-70
2023/01/17 05:09:07;;;;;;;0.50;0.40;;;1.50;99.90;;;;;;5108731;28;20208;-69
2023/01/17 05:11:34;;;;;;;0.30;0.30;;;1.40;99.90;;;;;;5109305;28;20704;-69
2023/01/17 05:14:01;;;;;;;0.85;0.77;;;1.40;99.90;;;;;;5109836;27;20200;-68
2023/01/17 05:16:28;;;;;;;0.77;0.40;;;1.40;99.90;;;;;;5111687;27;20218;-69
2023/01/17 05:18:56;;;;;;;0.52;0.38;;;1.40;99.90;;;;;;5125507;27;20190;-69
2023/01/17 05:21:23;;;;;;;0.30;0.30;;;1.40;99.90;;;;;;5120215;27;20719;-70
2023/01/17 05:23:50;;;;;;;0.40;0.40;;;1.50;99.90;;;;;;5129354;27;20248;-68
2023/01/17 05:26:17;;;;;;;0.30;0.20;;;1.50;99.90;;;;;;5128545;27;20221;-70
2023/01/17 05:28:43;;;;;;;0.40;0.40;;;1.50;99.90;;;;;;5123048;27;20298;-69
2023/01/17 05:31:10;;;;;;;0.73;0.73;;;1.50;99.90;;;;;;5123836;27;20220;-69
2023/01/17 05:33:37;;;;;;;0.30;0.30;;;1.50;99.90;;;;;;5109120;28;20223;-69
2023/01/17 05:36:06;;;;;;;0.50;0.50;;;1.50;99.90;;;;;;5109780;27;20579;-70
2023/01/17 05:38:32;;;;;;;0.63;0.60;;;1.50;99.90;;;;;;5124520;27;20201;-70
2023/01/17 05:41:00;;;;;;;0.40;0.30;;;1.60;99.90;;;;;;5127550;27;20221;-69
2023/01/17 05:43:27;;;;;;;0.50;0.50;;;1.60;99.90;;;;;;5129304;27;20666;-69
2023/01/17 05:45:54;;;;;;;0.55;0.55;;;1.50;99.90;;;;;;5127753;27;20571;-71
2023/01/17 05:48:21;;;;;;;1.00;1.00;;;2.00;99.90;;;;;;5128077;27;20570;-70
2023/01/17 05:50:48;;;;;;;0.40;0.35;;;2.10;99.90;;;;;;5128474;27;20225;-70
2023/01/17 05:53:16;;;;;;;1.65;0.50;;;1.60;99.90;;;;;;5128826;27;20276;-69
2023/01/17 05:55:43;;;;;;;0.30;0.30;;;1.60;99.90;;;;;;5128103;27;20232;-69
2023/01/17 05:58:16;;;;;;;0.80;0.80;;;1.60;99.90;;;;;;5127897;27;20671;-67
2023/01/17 06:00:43;;;;;;;0.30;0.30;;;1.60;99.90;;;;;;5128396;27;20599;-69
2023/01/17 06:03:10;;;;;;;0.70;0.70;;;2.30;99.90;;;;;;5128529;27;20590;-70
2023/01/17 06:05:37;;;;;;;0.50;0.50;;;1.60;99.90;;;;;;5128457;27;20577;-69
2023/01/17 06:08:04;;;;;;;0.70;0.55;;;1.50;99.90;;;;;;5127292;27;20291;-68
2023/01/17 06:10:32;;;;;;;0.40;0.40;;;1.50;99.90;;;;;;5128197;27;20243;-70
2023/01/17 06:13:04;;;;;;;0.73;0.70;;;1.40;99.90;;;;;;5128529;27;20215;-69
2023/01/17 06:15:31;;;;;;;0.32;0.32;;;1.40;99.90;;;;;;5128329;27;20232;-69
2023/01/17 06:17:58;;;;;;;0.30;0.30;;;1.40;99.90;;;;;;5127960;27;20781;-69
2023/01/17 06:20:26;;;;;;;3.28;0.65;;;1.40;99.90;;;;;;5127788;27;20709;-69
2023/01/17 06:22:54;;;;;;;0.90;0.90;;;1.30;99.90;;;;;;5128903;27;20527;-69
2023/01/17 06:25:20;;;;;;;1.70;1.25;;;1.20;99.90;;;;;;5127855;27;20227;-69
2023/01/17 06:27:49;;;;;;;1.00;1.00;;;1.20;99.90;;;;;;5127918;27;20211;-67
2023/01/17 06:30:16;;;;;;;1.10;1.10;;;1.10;99.90;;;;;;5127367;27;20192;-68
2023/01/17 06:32:43;;;;;;;0.30;0.30;;;1.10;99.90;;;;;;5127851;27;20197;-68
2023/01/17 06:35:10;;;;;;;2.15;2.05;;;1.10;99.90;;;;;;5127311;28;20193;-69
2023/01/17 06:37:36;;;;;;;0.85;0.85;;;1.00;99.90;;;;;;5123409;28;20202;-69
2023/01/17 06:40:04;;;;;;;0.80;0.80;;;1.00;99.90;;;;;;5122487;28;20204;-68
2023/01/17 06:42:31;;;;;;;0.70;0.70;;;0.90;99.90;;;;;;5128037;28;20219;-69
2023/01/17 06:44:59;;;;;;;0.98;0.98;;;0.90;99.90;;;;;;5127815;28;20213;-69
2023/01/17 06:47:26;;;;;;;0.40;0.40;;;1.00;99.90;;;;;;5127919;28;20232;-69
2023/01/17 06:49:52;;;;;;;0.57;0.45;;;1.60;99.90;;;;;;5126813;28;20219;-69
2023/01/17 06:52:19;;;;;;;0.30;0.30;;;1.00;99.90;;;;;;5127590;28;20209;-70
2023/01/17 06:54:46;;;;;;;0.50;0.50;;;1.00;99.90;;;;;;5127877;28;20197;-70
2023/01/17 06:57:13;;;;;;;0.75;0.75;;;1.10;99.90;;;;;;5114211;27;20228;-70
2023/01/17 06:59:39;;;;;;;0.30;0.30;;;1.10;99.90;;;;;;5118726;27;20213;-69
2023/01/17 07:02:10;;;;;;;0.70;0.40;;;1.10;99.90;;;;;;5128585;27;20672;-69
2023/01/17 07:04:37;;;;;;;2.45;1.73;;;1.90;99.90;;;;;;5123624;27;20226;-69
2023/01/17 07:07:03;;;;;;;0.40;0.38;;;1.10;99.90;;;;;;5111633;27;20522;-70
2023/01/17 07:09:30;;;;;;;0.57;0.57;;;1.10;99.90;;;;;;5129924;27;20292;-68
2023/01/17 07:12:00;;;;;;;1.30;0.77;;;1.10;99.90;;;;;;5130557;27;20251;-69
2023/01/17 07:14:27;;;;;;;1.75;1.65;;;1.10;99.90;;;;;;5130074;27;20193;-69
2023/01/17 07:16:54;;;;;;;0.50;0.40;;;1.10;99.90;;;;;;5130434;27;20221;-69
2023/01/17 07:19:23;;;;;;;1.58;1.48;;;1.20;99.90;;;;;;5112356;27;20198;-68
2023/01/17 07:21:51;;;;;;;1.60;0.85;;;1.10;99.90;;;;;;5130195;27;20221;-69
2023/01/17 07:24:18;;;;;;;0.50;0.50;;;1.20;99.90;;;;;;5130901;27;20214;-69
2023/01/17 07:26:47;;;;;;;0.50;0.50;;;1.30;99.90;;;;;;5130501;27;20217;-69
2023/01/17 07:29:14;;;;;;;0.50;0.50;;;1.30;99.90;;;;;;5130086;27;20193;-69
2023/01/17 07:31:40;;;;;;;0.55;0.55;;;1.40;99.90;;;;;;5128622;27;20223;-69
2023/01/17 07:34:07;;;;;;;0.40;0.40;;;2.00;99.90;;;;;;5131199;27;20691;-69
2023/01/17 07:36:35;;;;;;;0.60;0.55;;;1.30;99.90;;;;;;5124381;27;20637;-69
2023/01/17 07:39:03;;;;;;;1.23;0.45;;;1.30;99.90;;;;;;5116789;27;20221;-69
2023/01/17 07:41:31;;;;;;;0.40;0.40;;;1.20;99.90;;;;;;5126718;27;20221;-69
2023/01/17 07:43:59;;;;;;;0.30;0.30;;;-0.40;99.90;;;;;;5130557;27;20872;-69
2023/01/17 07:46:26;;;;;;;0.55;0.50;;;1.10;99.90;;;;;;5127558;27;20218;-69
2023/01/17 07:48:53;;;;;;;0.30;0.28;;;0.90;99.90;;;;;;5111296;27;20212;-69
2023/01/17 07:51:19;;;;;;;0.50;0.50;;;1.00;99.90;;;;;;5131063;27;20221;-69
2023/01/17 07:53:47;;;;;;;0.30;0.30;;;0.90;99.90;;;;;;5130490;27;20193;-67
2023/01/17 07:56:14;;;;;;;0.50;0.50;;;0.70;99.90;;;;;;5128840;27;20217;-70
2023/01/17 07:58:41;;;;;;;0.75;0.75;;;0.80;99.90;;;;;;5129102;27;20208;-69
2023/01/17 08:01:11;;;;;;;0.47;0.40;;;0.80;99.90;;;;;;5115803;27;20222;-69
2023/01/17 08:03:39;;;;;;;0.40;0.40;;;0.90;99.90;;;;;;5129123;27;20204;-68
2023/01/17 08:06:12;;;;;;;0.95;0.75;;;0.90;99.90;;;;;;5127962;27;20228;-68
2023/01/17 08:08:39;;;;;;;0.60;0.60;;;0.90;99.90;;;;;;5127516;27;20402;-69
2023/01/17 08:11:07;;;;;;;2.53;1.10;;;0.90;99.90;;;;;;5129581;27;20217;-69
2023/01/17 08:13:34;;;;;;;0.93;0.93;;;1.10;99.90;;;;;;5124592;27;20706;-69
2023/01/17 08:16:02;;;;;;;0.52;0.52;;;1.10;99.90;;;;;;5129931;27;20554;-68
2023/01/17 08:18:29;;;;;;;1.05;1.05;;;0.80;99.90;;;;;;5111502;27;20202;-68
2023/01/17 08:20:56;;;;;;;1.20;1.10;;;1.20;99.90;;;;;;5121151;27;20227;-69
2023/01/17 08:23:23;;;;;;;1.70;1.58;;;1.20;99.90;;;;;;5129848;27;20631;-69
2023/01/17 08:25:49;;;;;;;1.40;1.35;;;1.30;99.90;;;;;;5129681;27;20224;-67
2023/01/17 08:28:18;;;;;;;0.30;0.30;;;1.30;99.90;;;;;;5129313;27;20193;-68
2023/01/17 08:30:45;;;;;;;0.85;0.73;;;1.40;99.90;;;;;;5129380;27;20724;-69
2023/01/17 08:33:12;;;;;;;0.50;0.50;;;1.40;99.90;;;;;;5128994;27;20575;-69
2023/01/17 08:35:40;;;;;;;0.88;0.88;;;1.50;99.90;;;;;;5129531;27;20217;-70
2023/01/17 08:38:07;;;;;;;1.17;0.95;;;1.40;99.90;;;;;;5113838;27;20762;-68
2023/01/17 08:40:33;;;;;;;0.50;0.50;;;1.70;99.90;;;;;;5127739;27;20355;-68
2023/01/17 08:43:02;;;;;;;0.70;0.70;;;1.60;99.90;;;;;;5110559;27;20201;-68
2023/01/17 08:45:30;;;;;;;0.70;0.60;;;1.80;99.90;;;;;;5109344;28;20226;-70
2023/01/17 08:47:58;;;;;;;0.52;0.52;;;2.00;99.90;;;;;;5123000;27;20217;-69
2023/01/17 08:50:25;;;;;;;3.92;0.93;;;1.80;99.90;;;;;;5116824;27;20555;-70
2023/01/17 08:52:58;;;;;;;0.50;0.50;;;1.90;99.90;;;;;;5109400;28;20197;-69
2023/01/17 08:55:25;;;;;;;0.68;0.68;;;2.00;99.90;;;;;;5129309;27;20231;-69
2023/01/17 08:57:52;;;;;;;0.30;0.20;;;2.50;99.90;;;;;;5126380;27;20193;-67
2023/01/17 09:00:19;;;;;;;0.50;0.50;;;2.00;99.90;;;;;;5128798;27;20189;-70
2023/01/17 09:02:48;;;;;;;0.50;0.40;;;2.00;99.90;;;;;;5124412;27;20219;-69
2023/01/17 09:05:14;;;;;;;1.35;1.25;;;2.10;99.90;;;;;;5122663;27;20224;-69
2023/01/17 09:07:41;;;;;;;0.50;0.50;;;2.00;99.90;;;;;;5118742;27;20201;-69
2023/01/17 09:10:09;;;;;;;0.47;0.47;;;2.00;99.90;;;;;;5128404;27;20185;-69
2023/01/17 09:12:37;;;;;;;0.55;0.55;;;2.10;99.90;;;;;;5128925;27;20202;-69
2023/01/17 09:15:05;;;;;;;0.50;0.50;;;2.00;99.90;;;;;;5128577;27;20287;-69
2023/01/17 09:17:32;;;;;;;0.60;0.60;;;2.70;99.90;;;;;;5128548;27;20277;-68
2023/01/17 09:20:00;;;;;;;0.40;0.40;;;2.10;99.90;;;;;;5127118;27;20194;-67
2023/01/17 09:22:27;;;;;;;0.80;0.80;;;2.10;99.90;;;;;;5129187;27;20302;-69
2023/01/17 09:24:54;;;;;;;0.75;0.45;;;2.20;99.90;;;;;;5128851;27;20212;-69
2023/01/17 09:27:20;;;;;;;0.50;0.50;;;2.30;99.90;;;;;;5125667;27;20217;-69
2023/01/17 09:29:47;;;;;;;0.70;0.70;;;2.30;99.90;;;;;;5126335;27;20292;-69
2023/01/17 09:32:16;;;;;;;0.60;0.60;;;2.30;99.90;;;;;;5115232;27;20225;-69
2023/01/17 09:34:43;;;;;;;0.77;0.77;;;2.40;99.90;;;;;;5111200;27;20193;-70
2023/01/17 09:37:11;;;;;;;0.70;0.70;;;2.50;99.90;;;;;;5126410;27;20224;-69
2023/01/17 09:39:37;;;;;;;0.50;0.50;;;2.50;99.90;;;;;;5126538;27;20208;-69
2023/01/17 09:42:19;;;;;;;0.85;0.73;;;2.60;99.90;;;;;;5128662;27;20223;-69
2023/01/17 09:44:50;;;;;;;0.57;0.57;;;2.50;99.90;;;;;;5127816;27;20204;-70
2023/01/17 09:47:24;;;;;;;4.00;1.10;;;2.50;99.90;;;;;;5128575;27;20623;-69
2023/01/17 09:49:52;;;;;;;0.73;0.73;;;2.40;99.90;;;;;;5127656;27;20691;-69
2023/01/17 09:52:23;;;;;;;0.50;0.50;;;2.50;99.90;;;;;;5122269;27;20227;-68
2023/01/17 09:54:51;;;;;;;0.40;0.40;;;2.60;99.90;;;;;;5112255;27;20201;-68
2023/01/17 09:57:31;;;;;;;0.57;0.57;;;2.50;99.90;;;;;;5128152;27;20726;-69
2023/01/17 10:00:11;;;;;;;0.75;0.75;;;2.60;99.90;;;;;;5120221;27;20193;-72
2023/01/17 10:03:00;;;;;;;1.05;0.98;;;2.60;99.90;;;;;;5114400;27;20655;-69
2023/01/17 10:05:51;;;;;;;0.52;0.52;;;3.00;99.90;;;;;;5109463;27;20602;-67
2023/01/17 10:08:44;;;;;;;0.77;0.68;;;2.60;99.90;;;;;;5108269;27;20705;-70
2023/01/17 10:11:35;;;;;;;0.70;0.60;;;2.70;99.90;;;;;;5126622;27;20225;-70
2023/01/17 10:14:23;;;;;;;0.30;0.20;;;2.70;99.90;;;;;;5121328;27;20194;-69
2023/01/17 10:16:54;;;;;;;0.40;0.40;;;2.70;99.90;;;;;;5118806;27;20305;-70
2023/01/17 10:19:41;;;;;;;0.85;0.85;;;2.70;99.80;;;;;;5108051;28;20670;-69
2023/01/17 10:22:33;;;;;;;0.80;0.60;;;2.80;99.80;;;;;;5127326;27;20229;-69
2023/01/17 10:25:22;;;;;;;0.63;0.63;;;2.80;99.50;;;;;;5128217;27;20209;-69
2023/01/17 10:27:57;;;;;;;1.95;1.30;;;2.80;99.40;;;;;;5095700;28;20292;-69
2023/01/17 10:30:31;;;;;;;0.93;0.82;;;2.90;99.50;;;;;;5115734;27;20552;-70
2023/01/17 10:33:01;;;;;;;0.55;0.55;;;2.90;99.30;;;;;;5126886;27;20193;-69
2023/01/17 10:35:31;;;;;;;0.70;0.70;;;2.90;99.00;;;;;;5127790;27;20217;-69
2023/01/17 10:38:00;;;;;;;1.58;0.80;;;2.90;99.30;;;;;;5116756;28;20216;-71
2023/01/17 10:40:39;;;;;;;0.85;0.85;;;2.90;98.50;;;;;;5121410;28;20221;-69
2023/01/17 10:43:14;;;;;;;0.70;0.57;;;2.90;98.80;;;;;;5121770;28;20204;-69
2023/01/17 10:45:44;;;;;;;1.15;0.80;;;3.00;99.00;;;;;;5127698;28;20565;-70
2023/01/17 10:48:15;;;;;;;0.60;0.52;;;3.00;98.90;;;;;;5124992;28;20268;-69
2023/01/17 10:50:53;;;;;;;1.63;1.10;;;3.10;98.20;;;;;;5121976;28;20228;-69
2023/01/17 10:53:40;;;;;;;0.30;0.30;;;3.10;97.70;;;;;;5126778;28;20205;-69
2023/01/17 10:56:11;;;;;;;0.77;0.77;;;3.10;98.20;;;;;;5128131;28;20227;-70
2023/01/17 10:58:38;;;;;;;0.30;0.30;;;3.10;98.00;;;;;;5126971;28;20289;-69
2023/01/17 11:01:13;;;;;;;0.88;0.50;;;3.20;97.60;;;;;;5128433;28;20228;-70
2023/01/17 11:03:43;;;;;;;0.30;0.20;;;3.20;96.90;;;;;;5125558;28;20204;-70
2023/01/17 11:06:18;;;;;;;0.30;0.30;;;3.20;96.70;;;;;;5114192;28;20225;-69
2023/01/17 11:08:51;;;;;;;1.77;1.03;;;3.20;96.50;;;;;;5111154;28;20753;-70
2023/01/17 11:11:21;;;;;;;0.30;0.20;;;3.20;95.90;;;;;;5127055;28;20662;-70
2023/01/17 11:13:50;;;;;;;1.00;0.50;;;3.30;96.40;;;;;;5126666;28;20276;-70
2023/01/17 11:16:21;;;;;;;0.70;0.38;;;3.30;95.80;;;;;;5127140;28;20244;-70
2023/01/17 11:19:04;;;;;;;0.75;0.50;;;3.60;95.70;;;;;;5127018;28;20205;-69
2023/01/17 11:21:32;;;;;;;0.80;0.65;;;3.40;93.20;;;;;;5119438;28;20229;-69
2023/01/17 11:24:09;;;;;;;1.10;0.95;;;3.40;92.80;;;;;;5123187;28;20204;-69
2023/01/17 11:26:45;;;;;;;0.30;0.20;;;3.40;93.00;;;;;;5128216;28;20316;-69
2023/01/17 11:29:25;;;;;;;0.30;0.30;;;3.40;92.90;;;;;;5126694;28;20265;-68
2023/01/17 11:31:52;;;;;;;0.60;0.60;;;3.50;92.40;;;;;;5127631;28;20252;-70
2023/01/17 11:34:23;;;;;;;0.30;0.30;;;3.40;92.50;;;;;;5125935;28;20568;-68
2023/01/17 11:37:08;;;;;;;0.40;0.40;;;3.50;93.10;;;;;;5122717;28;21017;-69
2023/01/17 11:39:35;;;;;;;0.30;0.30;;;3.40;99.10;;;;;;5121241;28;20200;-68
2023/01/17 11:42:06;;;;;;;10.52;0.57;;;3.50;93.40;;;;;;5126922;27;20698;-69
2023/01/17 11:44:34;;;;;;;0.30;0.20;;;3.60;93.40;;;;;;5111580;27;20197;-70
2023/01/17 11:47:09;;;;;;;0.65;0.40;;;3.60;92.50;;;;;;5110330;28;20238;-69
2023/01/17 11:49:36;;;;;;;0.30;0.20;;;3.70;93.90;;;;;;5109077;28;20280;-70
2023/01/17 11:52:08;;;;;;;0.30;0.20;;;3.60;92.00;;;;;;5110551;28;20225;-70
2023/01/17 11:54:39;;;;;;;0.93;0.43;;;3.60;91.80;;;;;;5121614;27;20707;-69
2023/01/17 11:57:20;;;;;;;0.30;0.20;;;3.70;91.60;;;;;;5131250;27;20232;-68
2023/01/17 11:59:47;;;;;;;0.40;0.40;;;3.70;91.80;;;;;;5125733;27;20211;-70
2023/01/17 12:02:42;;;;;;;0.40;0.40;;;3.70;91.00;;;;;;5128704;27;20332;-70
2023/01/17 12:05:26;;;;;;;0.30;0.20;;;3.60;90.60;;;;;;5119568;27;20232;-70
2023/01/17 12:08:00;;;;;;;0.35;0.35;;;3.60;90.00;;;;;;5124212;27;20208;-69
2023/01/17 12:10:32;;;;;;;0.40;0.30;;;3.60;91.90;;;;;;5129778;27;20227;-69
2023/01/17 12:19:03;;;;;;;0.40;0.32;;;3.70;89.40;;;;;;5126845;27;20205;-69
2023/01/17 12:21:39;;;;;;;0.50;0.50;;;3.80;89.90;;;;;;5130459;27;20229;-68
2023/01/17 12:24:36;;;;;;;0.30;0.20;;;3.80;90.20;;;;;;5114969;27;20574;-69
2023/01/17 12:27:12;;;;;;;0.30;0.30;;;3.70;90.00;;;;;;5115452;27;20233;-68
2023/01/17 12:29:49;;;;;;;0.65;0.57;;;3.80;90.50;;;;;;5129339;27;20193;-71
2023/01/17 12:32:58;;;;;;;0.50;0.50;;;3.80;90.30;;;;;;5119833;27;20230;-69
2023/01/17 12:35:31;;;;;;;0.50;0.40;;;3.80;90.70;;;;;;5078137;27;20626;-70
2023/01/17 12:38:03;;;;;;;0.30;0.30;;;3.80;90.50;;;;;;5121659;27;20213;-68
2023/01/17 12:40:35;;;;;;;0.63;0.63;;;3.70;91.00;;;;;;5111837;27;20220;-69
2023/01/17 12:43:07;;;;;;;0.70;0.32;;;3.80;90.80;;;;;;5127121;27;20193;-68
2023/01/17 12:45:42;;;;;;;0.80;0.60;;;3.80;90.10;;;;;;5130022;27;20229;-69
2023/01/17 12:48:12;;;;;;;0.60;0.60;;;4.00;95.80;;;;;;5128305;27;20200;-70
2023/01/17 12:50:43;;;;;;;0.40;0.38;;;3.90;90.20;;;;;;5129712;27;20229;-69
2023/01/17 12:53:19;;;;;;;0.35;0.35;;;3.70;91.80;;;;;;5129584;27;20197;-69
2023/01/17 12:55:52;;;;;;;1.67;0.43;;;3.60;93.70;;;;;;5128641;27;20227;-70
2023/01/17 12:58:22;;;;;;;0.47;0.40;;;3.90;90.40;;;;;;5124579;27;20194;-69
2023/01/17 13:00:58;;;;;;;0.50;0.47;;;3.90;90.30;;;;;;5129274;27;20221;-69
2023/01/17 13:03:35;;;;;;;0.52;0.52;;;3.90;90.50;;;;;;5122305;27;20200;-68
2023/01/17 13:06:03;;;;;;;0.52;0.52;;;4.00;90.30;;;;;;5125957;27;20224;-69
2023/01/17 13:08:37;;;;;;;0.40;0.32;;;4.00;90.00;;;;;;5128903;27;20204;-69
2023/01/17 13:11:10;;;;;;;0.30;0.25;;;3.90;94.30;;;;;;5128257;27;20224;-69
2023/01/17 13:13:38;;;;;;;0.40;0.40;;;3.90;88.00;;;;;;5124294;27;20194;-69
2023/01/17 13:16:11;;;;;;;0.30;0.22;;;4.00;87.40;;;;;;5108670;28;20299;-69
2023/01/17 13:18:42;;;;;;;0.50;0.50;;;4.00;88.30;;;;;;5120347;27;20196;-69
2023/01/17 13:21:28;;;;;;;0.57;0.57;;;3.90;87.30;;;;;;5128527;27;20849;-69
2023/01/17 13:24:16;;;;;;;0.30;0.30;;;3.90;88.70;;;;;;5124868;27;20201;-70
2023/01/17 13:27:03;;;;;;;0.30;0.22;;;3.90;88.30;;;;;;5128421;27;20352;-69
2023/01/17 13:29:40;;;;;;;0.30;0.20;;;4.00;87.80;;;;;;5102454;27;20208;-69
2023/01/17 13:32:24;;;;;;;0.40;0.32;;;3.90;87.90;;;;;;5128505;27;20680;-69
2023/01/17 13:35:13;;;;;;;0.30;0.20;;;3.90;87.70;;;;;;5118606;27;20636;-69
2023/01/17 13:38:08;;;;;;;0.30;0.30;;;3.90;88.20;;;;;;5117064;27;20202;-68
2023/01/17 13:40:41;;;;;;;0.30;0.28;;;3.90;89.80;;;;;;5127727;27;20219;-68
2023/01/17 13:43:14;;;;;;;0.30;0.20;;;3.90;89.10;;;;;;5127580;27;20212;-67
2023/01/17 13:45:41;;;;;;;0.30;0.20;;;4.00;88.20;;;;;;5128353;27;20221;-69
2023/01/17 13:48:30;;;;;;;0.88;0.40;;;4.00;88.60;;;;;;5128179;27;20231;-70
2023/01/17 13:50:58;;;;;;;0.30;0.20;;;4.00;88.50;;;;;;5109964;27;20222;-69
2023/01/17 13:53:56;;;;;;;0.40;0.32;;;4.00;87.50;;;;;;5123347;27;20236;-69
2023/01/17 13:56:26;;;;;;;0.30;0.20;;;4.00;87.30;;;;;;5124317;27;20225;-69
2023/01/17 13:59:28;;;;;;;0.40;0.28;;;4.00;86.70;;;;;;5112320;27;20198;-69
2023/01/17 14:01:55;;;;;;;0.30;0.20;;;3.70;90.80;;;;;;5118238;27;20225;-69
2023/01/17 14:04:44;;;;;;;0.30;0.30;;;3.90;87.90;;;;;;5112471;27;20635;-69
2023/01/17 14:07:23;;;;;;;0.30;0.30;;;3.90;88.00;;;;;;5117286;27;21028;-70
2023/01/17 14:09:51;;;;;;;0.40;0.35;;;3.90;86.80;;;;;;5113229;27;20185;-68
2023/01/17 14:12:30;;;;;;;0.30;0.30;;;3.90;88.60;;;;;;5121526;27;20239;-69
2023/01/17 14:15:00;;;;;;;0.30;0.20;;;3.90;88.00;;;;;;5127598;27;20205;-69
2023/01/17 14:17:54;;;;;;;0.65;0.43;;;3.90;88.10;;;;;;5128025;27;20316;-70
2023/01/17 14:20:46;;;;;;;0.30;0.20;;;3.90;93.90;;;;;;5127404;27;20201;-69
2023/01/17 14:23:29;;;;;;;0.90;0.90;;;3.90;88.50;;;;;;5126373;27;20196;-69
2023/01/17 14:26:00;;;;;;;1.90;1.80;;;3.80;88.20;;;;;;5126993;27;20244;-70
2023/01/17 14:28:31;;;;;;;0.50;0.30;;;3.90;87.00;;;;;;5127137;27;20217;-69
2023/01/17 14:31:02;;;;;;;0.30;0.30;;;3.80;87.70;;;;;;5110613;28;20237;-70
2023/01/17 14:33:33;;;;;;;0.40;0.30;;;3.70;88.30;;;;;;5109014;28;20546;-69
2023/01/17 14:36:05;;;;;;;0.40;0.25;;;3.70;88.20;;;;;;5107252;28;20226;-68
2023/01/17 14:38:34;;;;;;;0.50;0.30;;;3.70;86.60;;;;;;5113948;28;20568;-67
2023/01/17 14:41:06;;;;;;;0.30;0.20;;;3.60;89.20;;;;;;5118357;28;20209;-69
2023/01/17 14:43:35;;;;;;;0.30;0.20;;;3.70;88.90;;;;;;5128034;28;20254;-69